createdAt,value
2023-01-08T00:01:50.431Z,100524.41
2023-01-08T00:04:22.422Z,100510.97
2023-01-08T00:06:54.359Z,100503.97
2023-01-08T00:09:26.389Z,100507.81
2023-01-08T00:11:58.298Z,100514.13
2023-01-08T00:14:30.968Z,100517.66
2023-01-08T00:17:04.828Z,100487.44
2023-01-08T00:19:36.828Z,100514.97
2023-01-08T00:22:08.862Z,100513.16
2023-01-08T00:24:40.813Z,100505.66
2023-01-08T00:27:12.764Z,100516.59
2023-01-08T00:29:44.835Z,100468.66
2023-01-08T00:32:16.826Z,100491.44
2023-01-08T00:34:48.812Z,100501.47
2023-01-08T00:37:21.024Z,100490.84
2023-01-08T00:39:52.966Z,100478.84
2023-01-08T00:42:24.933Z,100480.38
2023-01-08T00:44:56.936Z,100483.09
2023-01-08T00:47:28.913Z,100499.75
2023-01-08T00:50:00.906Z,100500.53
2023-01-08T00:52:32.842Z,100488.56
2023-01-08T00:55:05.291Z,100491.69
2023-01-08T00:57:39.287Z,100475.97
2023-01-08T01:00:14.433Z,100470.09
2023-01-08T01:02:46.533Z,100497.56
2023-01-08T01:05:18.556Z,100490.03
2023-01-08T01:07:50.655Z,100479.25
2023-01-08T01:10:23.325Z,100473.13
2023-01-08T01:12:55.260Z,100464.47
2023-01-08T01:15:27.374Z,100415.88
2023-01-08T01:17:59.315Z,100436.44
2023-01-08T01:20:31.210Z,100470.13
2023-01-08T01:23:04.522Z,100471.72
2023-01-08T01:25:39.369Z,100453.16
2023-01-08T01:28:11.313Z,100459.31
2023-01-08T01:30:43.502Z,100465.28
2023-01-08T01:33:15.493Z,100467.75
2023-01-08T01:35:47.518Z,100474.16
2023-01-08T01:38:19.479Z,100471.78
2023-01-08T01:40:51.402Z,100463.66
2023-01-08T01:43:42.016Z,100469.91
2023-01-08T01:46:40.023Z,100470.88
2023-01-08T01:49:18.248Z,100459.38
2023-01-08T01:51:56.211Z,100450.38
2023-01-08T01:54:30.115Z,100446.47
2023-01-08T01:57:02.263Z,100427.50
2023-01-08T01:59:34.189Z,100431.47
2023-01-08T02:02:06.476Z,100449.03
2023-01-08T02:04:38.525Z,100439.91
2023-01-08T02:07:50.895Z,100445.16
2023-01-08T02:10:30.109Z,100445.31
2023-01-08T02:13:09.312Z,100419.28
2023-01-08T02:15:53.249Z,100432.91
2023-01-08T02:18:37.998Z,100431.22
2023-01-08T02:21:13.719Z,100396.03
2023-01-08T02:24:11.413Z,100407.91
2023-01-08T02:26:46.191Z,100419.97
2023-01-08T02:29:26.051Z,100417.72
2023-01-08T02:31:58.307Z,100399.28
2023-01-08T02:34:32.415Z,100372.41
2023-01-08T02:37:04.860Z,100410.94
2023-01-08T02:40:07.402Z,100410.16
2023-01-08T02:42:57.323Z,100406.69
2023-01-08T02:45:52.648Z,100414.13
2023-01-08T02:48:24.704Z,100414.72
2023-01-08T02:51:05.809Z,100409.72
2023-01-08T02:53:43.327Z,100412.94
2023-01-08T02:56:19.678Z,100398.38
2023-01-08T02:58:54.293Z,100397.50
2023-01-08T03:01:28.234Z,100361.59
2023-01-08T03:04:06.972Z,100409.19
2023-01-08T03:06:39.108Z,100375.81
2023-01-08T03:09:12.151Z,100377.97
2023-01-08T03:11:55.054Z,100405.22
2023-01-08T03:14:35.535Z,100385.88
2023-01-08T03:17:10.791Z,100382.28
2023-01-08T03:19:49.238Z,100391.25
2023-01-08T03:22:23.190Z,100370.19
2023-01-08T03:24:57.119Z,100368.56
2023-01-08T03:27:32.916Z,100361.44
2023-01-08T03:30:08.056Z,100376.03
2023-01-08T03:32:42.493Z,100379.56
2023-01-08T03:35:18.412Z,100372.69
2023-01-08T03:38:00.913Z,100366.56
2023-01-08T03:40:39.904Z,100370.91
2023-01-08T03:43:12.077Z,100362.69
2023-01-08T03:45:52.006Z,100374.13
2023-01-08T03:48:25.486Z,100384.81
2023-01-08T03:50:57.526Z,100366.19
2023-01-08T03:53:29.521Z,100345.19
2023-01-08T03:56:01.438Z,100362.78
2023-01-08T03:58:33.397Z,100377.06
2023-01-08T04:01:05.592Z,100357.41
2023-01-08T04:03:38.267Z,100377.81
2023-01-08T04:06:10.745Z,100359.19
2023-01-08T04:08:42.657Z,100356.69
2023-01-08T04:11:14.671Z,100378.38
2023-01-08T04:13:46.638Z,100355.66
2023-01-08T04:16:18.729Z,100377.13
2023-01-08T04:18:50.822Z,100364.16
2023-01-08T04:21:22.766Z,100361.94
2023-01-08T04:23:55.756Z,100370.81
2023-01-08T04:26:27.705Z,100360.63
2023-01-08T04:29:02.401Z,100367.38
2023-01-08T04:31:34.324Z,100349.84
2023-01-08T04:34:06.345Z,100356.34
2023-01-08T04:36:38.618Z,100332.88
2023-01-08T04:39:11.660Z,100342.38
2023-01-08T04:41:43.502Z,100358.06
2023-01-08T04:44:15.432Z,100335.28
2023-01-08T04:46:47.395Z,100355.44
2023-01-08T04:49:19.421Z,100354.03
2023-01-08T04:51:51.372Z,100334.44
2023-01-08T04:54:23.383Z,100336.22
2023-01-08T04:56:55.366Z,100327.88
2023-01-08T04:59:27.337Z,100338.56
2023-01-08T05:01:59.473Z,100347.88
2023-01-08T05:04:31.752Z,100337.59
2023-01-08T05:07:04.651Z,100357.41
2023-01-08T05:09:36.613Z,100339.16
2023-01-08T05:12:08.620Z,100344.66
2023-01-08T05:14:40.552Z,100334.03
2023-01-08T05:17:12.515Z,100343.94
2023-01-08T05:19:44.476Z,100348.53
2023-01-08T05:22:16.460Z,100333.78
2023-01-08T05:24:48.371Z,100337.72
2023-01-08T05:27:20.749Z,100340.09
2023-01-08T05:29:52.840Z,100333.59
2023-01-08T05:32:24.785Z,100330.88
2023-01-08T05:34:57.092Z,100346.25
2023-01-08T05:37:29.005Z,100321.97
2023-01-08T05:40:01.016Z,100315.34
2023-01-08T05:42:35.594Z,100316.06
2023-01-08T05:45:08.417Z,100338.00
2023-01-08T05:47:40.394Z,100311.41
2023-01-08T05:50:12.445Z,100331.53
2023-01-08T05:52:44.727Z,100307.00
2023-01-08T05:55:16.754Z,100335.75
2023-01-08T05:57:48.741Z,100335.03
2023-01-08T06:00:20.960Z,100333.13
2023-01-08T06:02:52.923Z,100314.53
2023-01-08T06:05:25.089Z,100312.78
2023-01-08T06:07:57.836Z,100306.50
2023-01-08T06:10:29.676Z,100329.34
2023-01-08T06:13:02.666Z,100312.63
2023-01-08T06:15:34.676Z,100309.97
2023-01-08T06:18:06.839Z,100315.13
2023-01-08T06:20:38.878Z,100313.22
2023-01-08T06:23:10.915Z,100301.84
2023-01-08T06:25:42.796Z,100315.56
2023-01-08T06:28:14.628Z,100295.69
2023-01-08T06:30:46.528Z,100327.19
2023-01-08T06:33:21.180Z,100311.66
2023-01-08T06:35:53.489Z,100316.44
2023-01-08T06:38:25.353Z,100288.94
2023-01-08T06:40:57.219Z,100315.00
2023-01-08T06:43:29.208Z,100306.47
2023-01-08T06:46:01.644Z,100332.72
2023-01-08T06:48:33.611Z,100297.75
2023-01-08T06:51:06.022Z,100327.03
2023-01-08T06:53:37.993Z,100320.84
2023-01-08T06:56:11.401Z,100316.31
2023-01-08T06:58:43.386Z,100315.56
2023-01-08T07:01:16.983Z,100316.84
2023-01-08T07:03:49.322Z,100278.50
2023-01-08T07:06:22.538Z,100303.03
2023-01-08T07:08:54.492Z,100297.16
2023-01-08T07:11:26.489Z,100292.84
2023-01-08T07:13:58.434Z,100264.66
2023-01-08T07:16:30.439Z,100291.16
2023-01-08T07:19:02.399Z,100262.84
2023-01-08T07:21:34.560Z,100271.19
2023-01-08T07:24:07.934Z,100272.41
2023-01-08T07:26:40.166Z,100286.63
2023-01-08T07:29:12.012Z,100286.59
2023-01-08T07:31:44.027Z,100269.13
2023-01-08T07:34:16.133Z,100260.03
2023-01-08T07:36:48.068Z,100276.69
2023-01-08T07:39:20.032Z,100279.75
2023-01-08T07:41:51.953Z,100285.38
2023-01-08T07:44:24.007Z,100288.81
2023-01-08T07:46:56.003Z,100266.25
2023-01-08T07:49:27.989Z,100284.69
2023-01-08T07:51:59.946Z,100277.53
2023-01-08T07:54:31.879Z,100269.47
2023-01-08T07:57:03.918Z,100270.78
2023-01-08T07:59:35.812Z,100263.22
2023-01-08T08:02:07.968Z,100255.88
2023-01-08T08:04:40.007Z,100229.97
2023-01-08T08:07:11.972Z,100232.56
2023-01-08T08:09:43.935Z,100239.50
2023-01-08T08:12:15.880Z,100216.09
2023-01-08T08:14:47.841Z,100230.88
2023-01-08T08:17:19.878Z,100243.03
2023-01-08T08:19:51.848Z,100227.63
2023-01-08T08:22:23.798Z,100242.94
2023-01-08T08:24:55.759Z,100227.75
2023-01-08T08:27:27.739Z,100236.34
2023-01-08T08:30:00.105Z,100227.91
2023-01-08T08:32:32.059Z,100252.09
2023-01-08T08:35:05.803Z,100253.66
2023-01-08T08:37:37.829Z,100239.06
2023-01-08T08:40:10.262Z,100219.75
2023-01-08T08:42:42.175Z,100233.00
2023-01-08T08:45:14.389Z,100209.97
2023-01-08T08:47:46.387Z,100211.69
2023-01-08T08:50:18.901Z,100219.44
2023-01-08T08:52:50.840Z,100207.25
2023-01-08T08:55:22.860Z,100137.06
2023-01-08T08:57:54.798Z,100200.09
2023-01-08T09:00:26.723Z,100176.91
2023-01-08T09:02:58.905Z,100176.09
2023-01-08T09:05:30.931Z,100204.81
2023-01-08T09:08:02.844Z,100195.84
2023-01-08T09:10:36.589Z,100192.13
2023-01-08T09:13:09.367Z,100188.59
2023-01-08T09:15:41.318Z,100202.53
2023-01-08T09:18:15.838Z,100199.34
2023-01-08T09:20:48.182Z,100168.88
2023-01-08T09:23:20.338Z,100185.50
2023-01-08T09:26:00.263Z,100213.53
2023-01-08T09:28:32.840Z,100200.34
2023-01-08T09:31:05.396Z,100180.50
2023-01-08T09:33:37.402Z,100186.06
2023-01-08T09:36:11.974Z,100204.94
2023-01-08T09:38:45.295Z,100201.47
2023-01-08T09:41:27.115Z,100184.50
2023-01-08T09:44:01.438Z,100204.78
2023-01-08T09:46:35.016Z,100201.47
2023-01-08T09:49:11.417Z,100176.91
2023-01-08T09:51:43.609Z,100170.03
2023-01-08T09:54:18.008Z,100154.91
2023-01-08T09:56:50.117Z,100135.72
2023-01-08T09:59:22.957Z,100190.81
2023-01-08T10:01:55.255Z,100169.13
2023-01-08T10:04:30.318Z,100168.94
2023-01-08T10:07:16.170Z,100167.91
2023-01-08T10:09:50.576Z,100165.28
2023-01-08T10:12:30.882Z,100175.91
2023-01-08T10:15:06.091Z,100169.50
2023-01-08T10:17:41.028Z,100165.53
2023-01-08T10:20:20.979Z,100159.16
2023-01-08T10:22:57.236Z,100134.72
2023-01-08T10:25:29.309Z,100129.56
2023-01-08T10:28:03.546Z,100149.22
2023-01-08T10:30:38.504Z,100148.94
2023-01-08T10:33:25.756Z,100141.69
2023-01-08T10:36:03.836Z,100130.00
2023-01-08T10:38:48.624Z,100130.22
2023-01-08T10:41:21.854Z,100134.88
2023-01-08T10:44:02.164Z,100115.38
2023-01-08T10:46:41.916Z,100124.94
2023-01-08T10:49:29.308Z,100123.75
2023-01-08T10:52:01.708Z,100102.25
2023-01-08T10:54:39.792Z,100122.47
2023-01-08T10:57:28.726Z,100093.16
2023-01-08T11:00:00.756Z,100114.06
2023-01-08T11:02:38.141Z,100105.50
2023-01-08T11:05:11.773Z,100090.25
2023-01-08T11:07:48.148Z,100083.50
2023-01-08T11:10:23.542Z,100092.88
2023-01-08T11:12:57.990Z,100073.09
2023-01-08T11:15:34.849Z,100088.22
2023-01-08T11:18:27.871Z,100066.72
2023-01-08T11:21:11.372Z,100084.91
2023-01-08T11:23:43.307Z,100072.00
2023-01-08T11:26:20.910Z,100072.97
2023-01-08T11:29:11.009Z,100078.53
2023-01-08T11:32:08.756Z,100083.94
2023-01-08T11:35:05.444Z,100076.69
2023-01-08T11:37:40.714Z,100063.47
2023-01-08T11:40:18.214Z,100040.41
2023-01-08T11:43:14.496Z,100060.50
2023-01-08T11:45:49.377Z,100071.09
2023-01-08T11:48:36.448Z,100060.47
2023-01-08T11:51:08.376Z,100057.94
2023-01-08T11:54:04.981Z,100049.94
2023-01-08T11:56:48.824Z,100028.34
2023-01-08T11:59:44.488Z,100047.22
2023-01-08T12:02:44.751Z,100049.50
2023-01-08T12:05:38.496Z,100051.19
2023-01-08T12:08:28.309Z,100021.53
2023-01-08T12:11:17.841Z,100036.88
2023-01-08T12:14:07.212Z,100047.22
2023-01-08T12:17:09.945Z,100014.88
2023-01-08T12:20:08.064Z,100031.03
2023-01-08T12:23:00.538Z,100029.94
2023-01-08T12:25:43.460Z,100029.84
2023-01-08T12:29:09.575Z,100021.69
2023-01-08T12:31:46.356Z,100026.19
2023-01-08T12:34:46.674Z,99993.19
2023-01-08T12:37:31.097Z,99975.41
2023-01-08T12:40:22.720Z,100024.94
2023-01-08T12:43:00.957Z,100007.19
2023-01-08T12:45:40.982Z,100018.28
2023-01-08T12:48:20.842Z,100022.84
2023-01-08T12:51:21.365Z,100010.91
2023-01-08T12:54:03.235Z,100014.44
2023-01-08T12:57:25.036Z,100018.41
2023-01-08T13:00:05.344Z,100010.66
2023-01-08T13:03:03.474Z,100029.13
2023-01-08T13:05:37.959Z,100019.66
2023-01-08T13:08:34.526Z,100018.84
2023-01-08T13:11:07.883Z,100012.78
2023-01-08T13:13:45.428Z,100010.53
2023-01-08T13:16:22.423Z,100003.28
2023-01-08T13:19:02.914Z,100036.59
2023-01-08T13:21:39.772Z,100011.63
2023-01-08T13:24:37.421Z,99996.22
2023-01-08T13:27:15.199Z,100021.25
2023-01-08T13:29:51.485Z,100006.47
2023-01-08T13:32:43.262Z,100019.50
2023-01-08T13:35:15.260Z,100020.22
2023-01-08T13:37:51.876Z,100014.03
2023-01-08T13:40:46.425Z,100018.00
2023-01-08T13:43:31.794Z,100004.06
2023-01-08T13:46:03.839Z,100009.75
2023-01-08T13:48:39.762Z,99996.56
2023-01-08T13:51:34.329Z,100005.22
2023-01-08T13:54:33.243Z,100006.75
2023-01-08T13:57:12.912Z,99991.09
2023-01-08T13:59:57.759Z,99976.19
2023-01-08T14:02:32.891Z,99986.50
2023-01-08T14:05:19.495Z,99982.84
2023-01-08T14:07:52.013Z,99977.16
2023-01-08T14:10:24.610Z,99959.28
2023-01-08T14:13:08.861Z,99953.16
2023-01-08T14:15:40.895Z,99985.06
2023-01-08T14:18:14.553Z,99991.78
2023-01-08T14:20:50.813Z,99973.34
2023-01-08T14:23:30.651Z,99954.19
2023-01-08T14:26:09.014Z,99980.47
2023-01-08T14:28:52.039Z,99978.41
2023-01-08T14:31:26.956Z,99975.34
2023-01-08T14:34:00.939Z,99979.56
2023-01-08T14:36:33.121Z,99969.31
2023-01-08T14:39:11.756Z,99971.19
2023-01-08T14:42:02.063Z,99952.59
2023-01-08T14:44:40.423Z,99963.34
2023-01-08T14:47:18.558Z,99958.63
2023-01-08T14:49:54.337Z,99975.47
2023-01-08T14:52:26.759Z,99926.31
2023-01-08T14:55:03.451Z,99962.84
2023-01-08T14:57:35.378Z,99930.63
2023-01-08T15:00:14.931Z,99945.31
2023-01-08T15:02:48.706Z,99939.75
2023-01-08T15:05:28.870Z,99968.47
2023-01-08T15:08:22.442Z,99962.81
2023-01-08T15:11:00.628Z,99959.75
2023-01-08T15:13:35.247Z,99947.25
2023-01-08T15:16:35.460Z,99947.53
2023-01-08T15:19:11.933Z,99943.44
2023-01-08T15:21:52.009Z,99940.88
2023-01-08T15:24:34.648Z,99944.13
2023-01-08T15:27:10.558Z,99937.97
2023-01-08T15:29:51.667Z,99933.38
2023-01-08T15:32:24.334Z,99913.75
2023-01-08T15:34:56.336Z,99926.72
2023-01-08T15:37:28.571Z,99929.66
2023-01-08T15:40:01.040Z,99904.34
2023-01-08T15:42:52.503Z,99925.69
2023-01-08T15:45:32.158Z,99905.44
2023-01-08T15:48:05.097Z,99902.31
2023-01-08T15:50:40.711Z,99900.03
2023-01-08T15:53:17.781Z,99908.69
2023-01-08T15:55:50.142Z,99932.41
2023-01-08T15:58:22.000Z,99864.75
2023-01-08T16:00:53.986Z,99868.50
2023-01-08T16:03:26.217Z,99891.09
2023-01-08T16:05:58.180Z,99901.63
2023-01-08T16:08:30.133Z,99899.22
2023-01-08T16:11:02.120Z,99901.50
2023-01-08T16:13:34.137Z,99824.13
2023-01-08T16:16:14.904Z,99879.88
2023-01-08T16:18:46.828Z,99887.38
2023-01-08T16:21:18.807Z,99818.56
2023-01-08T16:23:50.898Z,99883.75
2023-01-08T16:26:22.820Z,99812.88
2023-01-08T16:28:55.518Z,99875.59
2023-01-08T16:31:27.563Z,99847.50
2023-01-08T16:34:03.703Z,99861.03
2023-01-08T16:36:36.347Z,99862.06
2023-01-08T16:39:08.321Z,99842.19
2023-01-08T16:41:40.459Z,99862.06
2023-01-08T16:44:26.901Z,99862.06
2023-01-08T16:47:01.698Z,99861.72
2023-01-08T16:49:33.877Z,99848.97
2023-01-08T16:52:06.012Z,99856.09
2023-01-08T16:54:38.192Z,99845.22
2023-01-08T16:57:10.159Z,99856.94
2023-01-08T16:59:42.140Z,99836.91
2023-01-08T17:02:14.137Z,99830.78
2023-01-08T17:04:46.051Z,99859.28
2023-01-08T17:07:18.070Z,99842.72
2023-01-08T17:09:50.031Z,99796.03
2023-01-08T17:12:24.793Z,99852.63
2023-01-08T17:14:56.819Z,99837.19
2023-01-08T17:17:28.776Z,99836.34
2023-01-08T17:20:00.804Z,99833.56
2023-01-08T17:22:32.901Z,99834.31
2023-01-08T17:25:05.268Z,99833.41
2023-01-08T17:27:37.422Z,99835.09
2023-01-08T17:30:11.367Z,99832.84
2023-01-08T17:32:43.298Z,99815.13
2023-01-08T17:35:15.307Z,99836.31
2023-01-08T17:37:47.368Z,99833.25
2023-01-08T17:40:19.395Z,99826.25
2023-01-08T17:42:51.365Z,99820.09
2023-01-08T17:45:23.532Z,99820.38
2023-01-08T17:47:55.419Z,99795.84
2023-01-08T17:50:27.303Z,99813.03
2023-01-08T17:53:00.037Z,99825.53
2023-01-08T17:55:31.955Z,99776.94
2023-01-08T17:58:03.841Z,99794.13
2023-01-08T18:00:35.716Z,99830.13
2023-01-08T18:03:07.575Z,99817.31
2023-01-08T18:05:39.411Z,99828.03
2023-01-08T18:08:11.288Z,99822.16
2023-01-08T18:10:43.125Z,99797.91
2023-01-08T18:13:15.254Z,99806.91
2023-01-08T18:15:47.108Z,99794.13
2023-01-08T18:18:19.019Z,99818.69
2023-01-08T18:20:54.692Z,99826.13
2023-01-08T18:23:26.795Z,99809.53
2023-01-08T18:26:05.168Z,99809.09
2023-01-08T18:28:47.228Z,99802.84
2023-01-08T18:31:19.442Z,99739.94
2023-01-08T18:33:52.693Z,99779.94
2023-01-08T18:36:24.689Z,99761.13
2023-01-08T18:38:57.835Z,99766.34
2023-01-08T18:41:48.197Z,99774.56
2023-01-08T18:44:20.221Z,99772.94
2023-01-08T18:46:52.226Z,99770.13
2023-01-08T18:49:24.862Z,99760.16
2023-01-08T18:51:56.854Z,99759.09
2023-01-08T18:54:29.224Z,99779.41
2023-01-08T18:57:01.271Z,99774.53
2023-01-08T18:59:33.300Z,99781.78
2023-01-08T19:02:05.677Z,99767.56
2023-01-08T19:04:37.643Z,99779.66
2023-01-08T19:07:09.602Z,99755.63
2023-01-08T19:09:41.684Z,99759.88
2023-01-08T19:12:13.671Z,99769.31
2023-01-08T19:14:47.084Z,99783.13
2023-01-08T19:17:19.205Z,99788.19
2023-01-08T19:19:51.236Z,99791.59
2023-01-08T19:22:26.997Z,99771.88
2023-01-08T19:24:59.576Z,99785.25
2023-01-08T19:27:31.524Z,99769.09
2023-01-08T19:30:04.472Z,99777.59
2023-01-08T19:32:36.590Z,99763.56
2023-01-08T19:35:08.957Z,99773.47
2023-01-08T19:37:40.796Z,99787.19
2023-01-08T19:40:13.286Z,99763.06
2023-01-08T19:43:03.886Z,99755.28
2023-01-08T19:45:37.617Z,99762.81
2023-01-08T19:48:09.601Z,99770.28
2023-01-08T19:50:41.898Z,99761.09
2023-01-08T19:53:14.660Z,99788.25
2023-01-08T19:55:46.716Z,99774.81
2023-01-08T19:58:19.792Z,99782.97
2023-01-08T20:00:56.465Z,99791.22
2023-01-08T20:03:29.037Z,99784.88
2023-01-08T20:06:00.883Z,99789.63
2023-01-08T20:08:32.816Z,99789.63
2023-01-08T20:11:07.296Z,99804.66
2023-01-08T20:13:39.521Z,99798.06
2023-01-08T20:16:14.009Z,99775.50
2023-01-08T20:18:46.117Z,99782.75
2023-01-08T20:21:24.343Z,99790.31
2023-01-08T20:24:02.720Z,99791.06
2023-01-08T20:26:36.456Z,99767.94
2023-01-08T20:29:08.723Z,99786.50
2023-01-08T20:31:41.363Z,99781.47
2023-01-08T20:34:16.322Z,99772.47
2023-01-08T20:36:48.325Z,99741.66
2023-01-08T20:39:20.313Z,99744.03
2023-01-08T20:41:55.900Z,99737.31
2023-01-08T20:44:35.945Z,99730.50
2023-01-08T20:47:07.848Z,99734.88
2023-01-08T20:49:39.915Z,99733.38
2023-01-08T20:52:11.801Z,99698.97
2023-01-08T20:54:43.734Z,99731.91
2023-01-08T20:57:15.643Z,99703.72
2023-01-08T20:59:47.752Z,99710.34
2023-01-08T21:02:20.927Z,99709.19
2023-01-08T21:04:55.259Z,99651.31
2023-01-08T21:07:30.074Z,99666.94
2023-01-08T21:10:02.290Z,99668.38
2023-01-08T21:12:35.939Z,99653.03
2023-01-08T21:15:09.067Z,99662.06
2023-01-08T21:17:40.936Z,99631.47
2023-01-08T21:20:13.134Z,99640.97
2023-01-08T21:22:45.505Z,99656.34
2023-01-08T21:25:19.220Z,99646.97
2023-01-08T21:27:51.096Z,99612.53
2023-01-08T21:30:23.051Z,99639.38
2023-01-08T21:32:54.905Z,99627.75
2023-01-08T21:35:27.126Z,99628.19
2023-01-08T21:37:59.072Z,99629.78
2023-01-08T21:40:31.077Z,99643.38
2023-01-08T21:43:21.399Z,99625.03
2023-01-08T21:46:05.492Z,99645.75
2023-01-08T21:48:37.410Z,99613.50
2023-01-08T21:51:29.400Z,99623.66
2023-01-08T21:54:01.295Z,99634.00
2023-01-08T21:56:33.679Z,99613.69
2023-01-08T21:59:05.618Z,99622.06
2023-01-08T22:01:37.655Z,99596.69
2023-01-08T22:04:09.688Z,99591.31
2023-01-08T22:06:43.141Z,99586.44
2023-01-08T22:09:15.115Z,99592.56
2023-01-08T22:11:47.330Z,99583.47
2023-01-08T22:14:19.320Z,99591.75
2023-01-08T22:16:51.542Z,99588.50
2023-01-08T22:19:23.560Z,99590.91
2023-01-08T22:21:55.497Z,99590.09
2023-01-08T22:24:27.512Z,99591.75
2023-01-08T22:26:59.556Z,99586.44
2023-01-08T22:29:31.558Z,99568.66
2023-01-08T22:32:04.172Z,99556.63
2023-01-08T22:34:36.184Z,99570.72
2023-01-08T22:37:08.323Z,99515.44
2023-01-08T22:39:40.286Z,99577.66
2023-01-08T22:42:12.224Z,99553.81
2023-01-08T22:44:44.127Z,99576.09
2023-01-08T22:47:16.033Z,99557.13
2023-01-08T22:49:49.047Z,99572.22
2023-01-08T22:52:21.090Z,99568.97
2023-01-08T22:54:55.084Z,99558.94
2023-01-08T22:57:27.059Z,99555.81
2023-01-08T22:59:58.912Z,99558.97
2023-01-08T23:02:30.774Z,99514.91
2023-01-08T23:05:02.800Z,99520.13
2023-01-08T23:07:34.741Z,99564.84
2023-01-08T23:10:07.459Z,99552.50
2023-01-08T23:12:39.296Z,99542.22
2023-01-08T23:15:11.390Z,99532.94
2023-01-08T23:17:52.135Z,99516.97
2023-01-08T23:20:25.311Z,99542.31
2023-01-08T23:22:57.279Z,99515.38
2023-01-08T23:25:30.468Z,99510.59
2023-01-08T23:28:02.442Z,99500.94
2023-01-08T23:30:34.473Z,99510.25
2023-01-08T23:33:06.435Z,99489.56
2023-01-08T23:35:38.375Z,99489.97
2023-01-08T23:38:10.326Z,99483.69
2023-01-08T23:40:43.522Z,99471.53
2023-01-08T23:43:15.493Z,99483.94
2023-01-08T23:45:47.456Z,99429.28
2023-01-08T23:48:19.459Z,99417.38
2023-01-08T23:50:51.436Z,99457.19
2023-01-08T23:53:23.739Z,99463.66
2023-01-08T23:55:55.695Z,99460.34
2023-01-08T23:58:27.848Z,99473.50
